Ишим (Южный)

СКИДКИ НА СМАРТФОНЫ!

Карта отелей и гостиниц, располагающихся рядом с аэропортом Ишим (Южный) :

Ишим (Южный) Тюменская область 56° 5' 9.5784" N, 69° 27' 11.6712" E
Ишим (Южный) Тюменская область 56° 5' 9.5784" N, 69° 27' 11.6712" E
Код аэродрома ИКАО
ZBF7
Код аэродрома RU
ЗБФ7
Координаты
N56.08599° E069.45324°
Превышение над уровнем моря
78
Основная полоса
12/30
Курс магнитный
115,7/295,7
Длина основной ВПП
838
Ширина основной ВПП
60
Покрытие основной ВПП
Нетвёрдое (грунт)
Освещение ВПП
Нет
Тип: 
Аэродром
Класс аэродрома: 
Принадлежность: 
ДОСААФ
Статус: 
Действующий
Сайт: 
E-mail аэродрома: 
Страна: 
Россия
Регион: 
Тюменская область
Город: 
Дополнительная информация: 
Оператор: Ишимский АСК ДОСААФ России. ГВПП 12/30 не поддерживается в работе. Подвержен затоплению в паводковый период.

Скидки на навигаторы!

Найти трансфер

С помощью этой формы Вы можете найти трансфер из аэропорта Ишим (Южный) в город, аэропорт или вокзал:

Погода в аэропортах:

Авиационная погода в Каяани

Регион: 
Погода METAR: 
EFKI 190050Z AUTO 13006KT 100V170 9999 -SHRA FEW042 //////CB 19/18 Q1020
Время наблюдения
2022-08-19T00:50:00Z
Температура C
19.0
Точка росы
18.0
Направление ветра
130
Скорость ветра (узлы)
6
Метео видимость
6.21
Облачность
FEW
Нижняя граница облачности (футы)
4200
Явления погоды
-SHRA
Условия полета
VFR
FEW – незначительная облачность;
-SHRA - слабый ливневой дождь;

Авиационная погода в Усть-Каменогорске

Регион: 
Погода METAR: 
UASK 190255Z 25002MPS 220V330 2100 BR BCFG SCT004 10/07 Q1015 TEMPO 0200 FG BKN002 RMK QBB120 QFE736/0981
Время наблюдения
2022-08-19T02:55:00Z
Температура C
10.0
Точка росы
7.0
Направление ветра
250
Скорость ветра (узлы)
4
Метео видимость
1.3
Облачность
SCT
Нижняя граница облачности (футы)
400
Явления погоды
BR BCFG
Условия полета
IFR
Аэропорт подробнее: 
SCT – разбросанная отдельная облачность;
FG – туман (небо не видно, температура воздуха выше нуля или ноль); BR – дымка (видимость от 1 до 9 км);

Авиационная погода в Богашево

Регион: 
Погода METAR: 
UNTT 190100Z 25003MPS 2300 -RA BR OVC002 10/10 Q1011 R21/290050 NOSIG RMK QFE743
Время наблюдения
2022-08-19T01:00:00Z
Температура C
10.0
Точка росы
10.0
Направление ветра
250
Скорость ветра (узлы)
6
Метео видимость
1.43
Облачность
OVC
Нижняя граница облачности (футы)
200
Явления погоды
-RA BR
Условия полета
LIFR
Аэропорт подробнее: 
OVC – сплошная облачность;
-RA - слабый дождь; BR – дымка (видимость от 1 до 9 км);

Авиационная погода в Мирном

Регион: 
Погода METAR: 
UERR 190100Z 03003MPS 3000 BR OVC003 10/10 Q0998 R25/290255 NOSIG RMK QBB100 QFE718/0957
Время наблюдения
2022-08-19T01:00:00Z
Температура C
10.0
Точка росы
10.0
Направление ветра
30
Скорость ветра (узлы)
6
Метео видимость
1.86
Облачность
OVC
Нижняя граница облачности (футы)
300
Явления погоды
BR
Условия полета
LIFR
Аэропорт подробнее: 
OVC – сплошная облачность;
BR – дымка (видимость от 1 до 9 км);